Time;durP1;ratioP1;P1;durP2;ratioP2;P2;SDS_P1;SDS_P2;PMS_P1;PMS_P2;Temp;Humidity;BMP_temperature;BMP_pressure;BME280_temperature;BME280_humidity;BME280_pressure;Samples;Min_cycle;Max_cycle;Signal;HPM_P1;HPM_P2
2021/07/20 04:16:25;;;;;;;16.92;12.60;;;;;;;14.36;89.81;99000.41;5562908;23;20305;-73
2021/07/20 04:18:51;;;;;;;22.73;14.38;;;;;;;14.47;88.89;98995.69;5033331;28;20395;-73
2021/07/20 04:21:18;;;;;;;17.58;11.77;;;;;;;14.47;87.47;98998.31;5033316;28;20026;-73
2021/07/20 04:23:44;;;;;;;24.40;12.80;;;;;;;14.45;87.63;98992.28;5032454;28;20026;-74
2021/07/20 04:26:12;;;;;;;23.83;11.93;;;;;;;14.06;89.51;99008.19;5024403;28;20080;-74
2021/07/20 04:28:38;;;;;;;20.55;12.90;;;;;;;14.10;89.92;99006.34;5013154;28;20057;-74
2021/07/20 04:31:05;;;;;;;21.17;12.85;;;;;;;14.06;89.91;98999.50;5028849;23;20038;-70
2021/07/20 04:33:33;;;;;;;21.77;12.75;;;;;;;14.23;88.97;99001.66;5013054;28;20101;-70
2021/07/20 04:36:00;;;;;;;24.02;14.35;;;;;;;14.44;88.65;99006.22;5013241;28;20030;-71
2021/07/20 04:38:29;;;;;;;25.42;13.35;;;;;;;14.37;88.59;99000.34;5012971;28;20022;-70
2021/07/20 04:40:56;;;;;;;19.35;12.75;;;;;;;14.32;88.83;99006.59;5001832;28;20650;-72
2021/07/20 04:43:21;;;;;;;20.90;12.77;;;;;;;14.43;88.86;99014.94;4993577;28;20030;-69
2021/07/20 04:45:50;;;;;;;22.77;13.35;;;;;;;14.60;88.76;99007.50;4993579;28;20061;-69
2021/07/20 04:48:16;;;;;;;16.52;12.23;;;;;;;14.90;87.41;99015.28;4993288;28;20030;-70
2021/07/20 04:50:44;;;;;;;24.10;16.27;;;;;;;15.13;87.61;99011.91;4993295;28;20030;-70
2021/07/20 04:53:12;;;;;;;24.85;14.50;;;;;;;15.20;86.50;99015.19;4993382;28;20389;-70
2021/07/20 04:55:39;;;;;;;28.83;15.40;;;;;;;15.20;86.49;99017.78;4993179;28;20037;-71
2021/07/20 04:58:06;;;;;;;23.90;13.80;;;;;;;15.32;85.53;99014.75;4993312;28;20026;-71
2021/07/20 05:00:34;;;;;;;23.25;14.35;;;;;;;15.01;86.73;99021.00;4992829;28;20026;-72
2021/07/20 05:03:03;;;;;;;21.57;15.33;;;;;;;15.40;86.19;99015.38;4992434;28;20028;-72
2021/07/20 05:05:31;;;;;;;22.45;14.73;;;;;;;15.29;85.76;99028.78;4992570;28;20574;-70
2021/07/20 05:07:58;;;;;;;25.77;16.98;;;;;;;15.31;86.41;99026.13;4992893;28;20038;-70
2021/07/20 05:10:25;;;;;;;30.63;15.57;;;;;;;15.79;85.36;99022.78;4992830;28;20022;-70
2021/07/20 05:12:51;;;;;;;33.47;17.88;;;;;;;16.14;83.37;99024.97;4991783;28;20092;-70
2021/07/20 05:15:19;;;;;;;44.08;25.25;;;;;;;16.08;82.93;99025.19;4992933;28;20026;-72
2021/07/20 05:17:45;;;;;;;28.10;17.48;;;;;;;16.01;82.49;99026.34;4992877;28;20026;-72
2021/07/20 05:20:17;;;;;;;24.05;15.88;;;;;;;16.11;83.31;99025.09;4992629;28;20026;-72
2021/07/20 05:22:43;;;;;;;24.13;16.70;;;;;;;16.21;82.26;99024.75;4991761;28;20050;-71
2021/07/20 05:25:11;;;;;;;28.77;16.38;;;;;;;16.24;81.39;99027.25;4992683;28;20030;-70
2021/07/20 05:27:44;;;;;;;29.48;16.75;;;;;;;16.56;80.06;99021.66;4992523;28;20022;-70
2021/07/20 05:30:11;;;;;;;26.58;16.35;;;;;;;16.50;80.39;99027.13;4992640;28;20590;-69
2021/07/20 05:32:40;;;;;;;25.55;16.85;;;;;;;16.63;80.25;99028.38;4992716;28;20042;-71
2021/07/20 05:35:09;;;;;;;31.13;16.27;;;;;;;16.69;79.57;99022.03;4992479;28;20038;-69
2021/07/20 05:37:36;;;;;;;19.67;15.50;;;;;;;16.61;79.71;99027.56;4992540;28;20022;-69
2021/07/20 05:40:04;;;;;;;22.95;15.52;;;;;;;16.75;78.86;99026.22;4991131;28;20022;-70
2021/07/20 05:42:31;;;;;;;30.08;16.60;;;;;;;16.80;79.15;99029.50;4990790;28;20032;-71
2021/07/20 05:44:57;;;;;;;30.98;16.45;;;;;;;17.02;77.57;99030.38;4989450;28;20454;-70
2021/07/20 05:47:23;;;;;;;24.30;16.15;;;;;;;16.82;78.76;99032.91;4989256;28;20133;-70
2021/07/20 05:49:48;;;;;;;24.30;15.57;;;;;;;16.90;78.33;99036.06;4990595;28;20041;-71
2021/07/20 05:52:15;;;;;;;24.17;16.45;;;;;;;16.89;77.62;99035.22;4991037;28;20026;-69
2021/07/20 05:54:44;;;;;;;26.60;16.10;;;;;;;17.20;77.10;99034.84;4990825;28;20041;-70
2021/07/20 05:57:11;;;;;;;25.45;17.10;;;;;;;17.16;77.27;99038.53;4992147;28;20023;-72
2021/07/20 05:59:38;;;;;;;24.00;16.17;;;;;;;17.27;76.75;99045.94;4992366;28;20027;-70
2021/07/20 06:02:14;;;;;;;22.30;15.20;;;;;;;17.23;77.59;99040.88;4991103;28;20027;-72
2021/07/20 06:04:41;;;;;;;21.13;16.30;;;;;;;17.29;77.06;99044.09;4992583;28;20092;-69
2021/07/20 06:07:09;;;;;;;20.13;15.00;;;;;;;17.56;76.31;99042.09;4992402;28;20395;-70
2021/07/20 06:09:36;;;;;;;25.35;15.70;;;;;;;17.54;76.03;99046.53;4992345;28;20022;-69
2021/07/20 06:12:05;;;;;;;24.85;15.82;;;;;;;17.85;75.12;99048.75;4992676;28;20030;-69
2021/07/20 06:14:31;;;;;;;22.38;14.77;;;;;;;17.90;74.40;99048.56;4992198;28;20022;-70
2021/07/20 06:16:57;;;;;;;21.88;15.15;;;;;;;17.89;73.67;99047.72;4992126;28;20033;-70
2021/07/20 06:19:22;;;;;;;22.88;14.77;;;;;;;18.11;73.33;99052.84;4992109;28;20038;-70
2021/07/20 06:21:49;;;;;;;30.17;15.40;;;;;;;18.38;72.24;99052.53;4992223;28;20109;-70
2021/07/20 06:24:15;;;;;;;21.75;14.38;;;;;;;18.38;73.07;99049.94;4992558;28;20447;-69
2021/07/20 06:26:42;;;;;;;24.13;14.38;;;;;;;18.14;72.78;99059.75;4992062;28;20026;-73
2021/07/20 06:29:09;;;;;;;25.63;14.73;;;;;;;18.42;72.39;99059.34;4990766;28;20141;-71
2021/07/20 06:31:39;;;;;;;25.20;14.50;;;;;;;18.67;72.07;99052.06;4990813;28;20036;-71
2021/07/20 06:34:05;;;;;;;24.50;14.63;;;;;;;18.66;72.03;99060.88;4992220;28;20022;-69
2021/07/20 06:36:33;;;;;;;24.60;15.20;;;;;;;18.77;70.56;99059.53;4992138;28;20109;-71
2021/07/20 06:38:58;;;;;;;25.75;15.20;;;;;;;18.99;70.75;99060.22;4990589;28;20084;-69
2021/07/20 06:41:24;;;;;;;26.60;15.02;;;;;;;18.80;70.25;99052.34;4992082;28;20415;-73
2021/07/20 06:43:51;;;;;;;22.88;13.90;;;;;;;18.83;71.38;99059.25;4991980;28;20033;-69
2021/07/20 06:46:22;;;;;;;21.98;13.48;;;;;;;19.13;69.36;99060.41;4993187;28;20387;-69
2021/07/20 06:48:48;;;;;;;25.75;13.90;;;;;;;19.10;68.60;99063.19;4995833;28;20042;-68
2021/07/20 06:51:13;;;;;;;22.35;13.68;;;;;;;19.38;68.23;99061.81;4995483;28;20132;-70
2021/07/20 06:53:39;;;;;;;25.73;12.88;;;;;;;19.59;67.21;99059.94;4995674;28;20395;-69
2021/07/20 06:56:07;;;;;;;26.08;13.80;;;;;;;20.08;65.31;99054.81;4995361;28;20026;-71
2021/07/20 06:58:34;;;;;;;20.38;13.45;;;;;;;21.33;61.65;99052.41;4978159;28;20034;-70
2021/07/20 07:01:02;;;;;;;22.92;12.40;;;;;;;21.80;58.67;99050.44;4995312;28;20479;-69
2021/07/20 07:03:49;;;;;;;17.63;11.93;;;;;;;22.43;57.23;99056.34;4995492;28;20030;-69
2021/07/20 07:06:16;;;;;;;19.70;11.95;;;;;;;23.69;52.79;99052.66;4993945;28;20029;-69
2021/07/20 07:08:42;;;;;;;17.08;11.35;;;;;;;24.63;50.19;99048.81;4995203;28;20022;-71
2021/07/20 07:11:07;;;;;;;18.83;11.50;;;;;;;24.60;50.39;99049.88;4995313;28;20025;-69
2021/07/20 07:13:35;;;;;;;20.38;10.68;;;;;;;25.83;47.06;99047.06;4993918;28;20458;-70
2021/07/20 07:16:02;;;;;;;16.10;10.27;;;;;;;27.16;44.43;99044.50;4994970;28;20026;-71
2021/07/20 07:18:28;;;;;;;18.75;10.65;;;;;;;24.99;47.84;99050.59;4993610;28;20026;-70
2021/07/20 07:20:57;;;;;;;17.38;9.95;;;;;;;26.82;44.88;99041.88;4994984;28;20069;-72
2021/07/20 07:23:25;;;;;;;17.00;10.02;;;;;;;26.79;44.53;99042.16;4995052;28;20121;-70
2021/07/20 07:25:57;;;;;;;17.52;9.90;;;;;;;27.04;43.45;99045.47;4993667;28;20033;-71
2021/07/20 07:28:24;;;;;;;18.95;9.30;;;;;;;26.30;45.82;99043.38;4994947;28;20022;-70
2021/07/20 07:30:51;;;;;;;19.08;9.93;;;;;;;26.85;44.30;99046.97;4994611;28;20427;-71
2021/07/20 07:33:18;;;;;;;15.68;9.65;;;;;;;27.44;41.96;99042.22;4994816;28;20026;-69
2021/07/20 07:35:45;;;;;;;15.38;9.52;;;;;;;27.61;41.98;99050.50;4994646;28;20105;-71
2021/07/20 07:38:10;;;;;;;14.35;9.85;;;;;;;27.56;42.59;99047.38;4994789;28;20109;-69
2021/07/20 07:40:36;;;;;;;16.95;10.10;;;;;;;27.32;43.22;99041.41;4994638;28;20444;-69
2021/07/20 07:43:04;;;;;;;19.10;9.82;;;;;;;28.06;40.60;99044.06;4994620;28;20395;-71
2021/07/20 07:45:30;;;;;;;19.13;9.63;;;;;;;28.64;39.80;99039.03;4994617;28;20033;-70
2021/07/20 07:47:57;;;;;;;16.25;9.82;;;;;;;28.29;39.68;99050.09;4994283;28;20036;-69
2021/07/20 07:50:23;;;;;;;11.98;8.88;;;;;;;28.64;40.56;99049.69;4994293;28;20109;-70
2021/07/20 07:52:51;;;;;;;15.25;9.35;;;;;;;27.55;41.71;99058.13;4993104;28;20018;-71
2021/07/20 07:55:21;;;;;;;12.35;9.18;;;;;;;28.77;38.35;99047.63;4993072;28;20080;-69
2021/07/20 07:57:48;;;;;;;13.35;8.63;;;;;;;30.12;37.27;99048.63;4994382;28;20029;-70
2021/07/20 08:00:14;;;;;;;11.52;8.93;;;;;;;29.94;36.79;99046.72;4994210;28;20034;-70
2021/07/20 08:02:41;;;;;;;17.40;9.23;;;;;;;30.04;36.44;99045.84;4994164;28;20045;-70
2021/07/20 08:05:07;;;;;;;15.23;8.43;;;;;;;29.55;36.60;99047.78;4994078;28;20026;-70
2021/07/20 08:07:35;;;;;;;15.32;9.13;;;;;;;29.74;37.34;99045.09;4993862;28;20431;-71
2021/07/20 08:10:02;;;;;;;13.57;8.70;;;;;;;30.31;35.93;99047.75;4994100;28;20101;-72
2021/07/20 08:12:29;;;;;;;11.10;7.93;;;;;;;29.73;37.11;99047.88;4992682;28;20030;-69
2021/07/20 08:14:54;;;;;;;15.20;8.50;;;;;;;29.02;38.69;99050.81;4994076;28;20031;-71
2021/07/20 08:17:21;;;;;;;15.43;8.50;;;;;;;29.08;37.17;99052.91;4993925;28;20073;-69
2021/07/20 08:19:47;;;;;;;11.73;8.10;;;;;;;29.54;37.09;99054.03;4994008;28;20416;-73
2021/07/20 08:22:16;;;;;;;14.35;7.60;;;;;;;30.26;35.15;99047.34;4994035;28;20438;-70
2021/07/20 08:24:55;;;;;;;10.32;7.13;;;;;;;30.49;35.46;99047.84;4993898;28;20022;-70
2021/07/20 08:27:23;;;;;;;;;;;;;;;30.83;34.26;99048.13;4994156;28;20113;-72
2021/07/20 08:29:51;;;;;;;12.68;8.20;;;;;;;30.58;34.04;99046.94;4993418;28;19952;-72
2021/07/20 08:32:20;;;;;;;11.23;7.38;;;;;;;30.50;34.54;99050.34;4994080;28;20083;-70
2021/07/20 08:34:53;;;;;;;12.18;7.65;;;;;;;30.30;35.19;99052.25;4992371;28;20027;-72
2021/07/20 08:37:19;;;;;;;14.00;7.78;;;;;;;30.31;35.55;99053.94;4993542;28;20022;-71
2021/07/20 08:39:48;;;;;;;14.23;7.30;;;;;;;29.29;36.38;99050.94;4993340;28;20033;-71
2021/07/20 08:43:09;;;;;;;11.73;7.50;;;;;;;29.19;37.70;99056.28;4993627;28;20022;-70
2021/07/20 08:46:06;;;;;;;15.02;7.25;;;;;;;29.93;35.83;99053.06;4893533;28;20028;-70
2021/07/20 08:48:39;;;;;;;14.82;7.30;;;;;;;30.62;34.43;99056.38;4993343;28;20034;-70
2021/07/20 08:51:09;;;;;;;14.32;7.13;;;;;;;30.02;35.69;99053.16;4993341;28;20472;-70
2021/07/20 08:53:51;;;;;;;10.00;7.75;;;;;;;31.10;33.92;99055.28;4993316;28;20057;-70
2021/07/20 08:56:19;;;;;;;12.38;7.65;;;;;;;30.96;33.34;99049.44;4991830;28;20157;-70
2021/07/20 08:59:03;;;;;;;11.70;7.70;;;;;;;30.50;34.96;99047.69;4993232;28;20027;-70
2021/07/20 09:02:01;;;;;;;11.75;7.60;;;;;;;30.56;35.02;99047.09;4993325;28;20089;-70
2021/07/20 09:04:38;;;;;;;14.38;7.78;;;;;;;30.59;34.20;99051.31;4992413;28;20034;-72
2021/07/20 09:07:09;;;;;;;12.38;7.45;;;;;;;29.72;36.82;99052.38;4993159;28;20038;-72
2021/07/20 09:09:39;;;;;;;13.18;7.15;;;;;;;30.57;35.74;99039.94;4992593;28;20168;-70
2021/07/20 09:12:18;;;;;;;12.02;7.50;;;;;;;32.10;32.61;99043.41;4991782;28;20026;-72
2021/07/20 09:15:06;;;;;;;10.05;6.80;;;;;;;33.08;31.02;99054.66;4992949;28;20022;-70
2021/07/20 09:17:50;;;;;;;15.23;7.25;;;;;;;32.99;30.77;99054.63;4992909;28;20041;-70
2021/07/20 09:20:25;;;;;;;16.67;8.75;;;;;;;31.97;31.44;99055.41;4992717;28;20089;-72
2021/07/20 09:22:55;;;;;;;15.10;7.30;;;;;;;32.34;30.81;99045.41;4992918;28;20027;-70
2021/07/20 09:25:31;;;;;;;12.85;7.88;;;;;;;31.67;32.12;99055.81;4992713;28;20027;-70
2021/07/20 09:28:02;;;;;;;17.17;8.35;;;;;;;29.50;35.71;99052.66;4992683;28;20025;-70
2021/07/20 09:30:33;;;;;;;10.18;7.10;;;;;;;29.86;36.02;99049.25;4991039;28;20415;-70
2021/07/20 09:33:20;;;;;;;14.98;8.18;;;;;;;31.38;33.71;99045.34;4992675;28;20041;-70
2021/07/20 09:35:51;;;;;;;13.43;7.28;;;;;;;31.39;33.69;99053.25;4991168;28;20042;-70
2021/07/20 09:38:28;;;;;;;10.52;7.75;;;;;;;27.16;40.17;99055.13;4992519;28;20346;-70
2021/07/20 09:41:06;;;;;;;13.80;8.60;;;;;;;28.12;37.90;99048.88;4992291;28;20108;-69
2021/07/20 09:43:52;;;;;;;15.27;9.05;;;;;;;30.66;33.99;99044.38;4992891;28;20084;-72
2021/07/20 09:46:35;;;;;;;16.33;8.10;;;;;;;33.06;29.15;99036.00;4992440;28;20033;-72
2021/07/20 09:49:09;;;;;;;11.25;7.63;;;;;;;32.75;30.57;99033.03;4992540;28;20073;-70
2021/07/20 09:52:19;;;;;;;11.30;8.10;;;;;;;32.40;31.64;99034.91;4992391;28;20436;-72
2021/07/20 09:55:07;;;;;;;14.05;8.57;;;;;;;29.43;37.45;99041.69;4992561;28;20054;-70
2021/07/20 09:58:00;;;;;;;13.25;8.32;;;;;;;28.34;37.87;99039.91;4992281;28;20510;-70
2021/07/20 10:00:37;;;;;;;16.00;9.25;;;;;;;31.21;31.69;99034.47;4992140;28;20403;-70
2021/07/20 10:03:21;;;;;;;14.40;8.82;;;;;;;31.93;31.34;99035.28;4975772;28;20026;-70
2021/07/20 10:06:11;;;;;;;15.93;8.95;;;;;;;29.57;35.75;99037.78;4990986;28;20435;-70
2021/07/20 10:08:53;;;;;;;20.25;8.82;;;;;;;28.60;37.66;99033.09;4992269;28;20026;-72
2021/07/20 10:11:24;;;;;;;15.57;8.85;;;;;;;27.95;38.94;99031.69;4992440;28;20022;-70
2021/07/20 10:14:08;;;;;;;14.73;9.48;;;;;;;27.31;39.94;99034.41;4992322;28;20391;-72
2021/07/20 10:16:53;;;;;;;11.70;8.80;;;;;;;28.96;38.15;99021.97;4992351;28;20032;-70
2021/07/20 10:19:42;;;;;;;12.93;8.63;;;;;;;31.80;32.40;99023.25;4992318;28;20046;-70
2021/07/20 10:22:11;;;;;;;13.35;9.55;;;;;;;31.73;31.95;99025.72;4995493;28;20454;-72
2021/07/20 10:24:43;;;;;;;13.40;8.80;;;;;;;32.74;30.95;99020.63;4995833;28;20434;-70
2021/07/20 10:27:14;;;;;;;14.48;9.95;;;;;;;32.54;30.97;99019.19;4996088;28;20026;-70
2021/07/20 10:29:58;;;;;;;13.23;9.48;;;;;;;26.81;40.59;99034.88;4994611;28;20027;-69
2021/07/20 10:32:37;;;;;;;12.82;9.32;;;;;;;24.59;45.94;99042.88;4996590;28;20085;-70
2021/07/20 10:35:07;;;;;;;14.90;8.63;;;;;;;25.31;43.41;99030.56;4995751;28;20023;-71
2021/07/20 10:37:38;;;;;;;13.85;9.60;;;;;;;27.37;39.23;99021.44;4996085;28;20045;-69
2021/07/20 10:40:09;;;;;;;20.05;9.60;;;;;;;26.83;41.06;99024.94;4995711;28;20030;-71
2021/07/20 10:42:57;;;;;;;14.35;9.55;;;;;;;26.94;40.78;99029.41;4994536;28;20027;-72
2021/07/20 10:45:24;;;;;;;18.30;9.20;;;;;;;25.26;44.43;99031.88;4981527;28;20062;-70
2021/07/20 10:48:14;;;;;;;13.50;9.68;;;;;;;23.95;46.85;99031.50;4995436;28;20034;-70
2021/07/20 10:51:06;;;;;;;16.98;9.43;;;;;;;25.40;45.06;99026.38;4995715;28;20053;-70
2021/07/20 10:53:40;;;;;;;19.27;9.98;;;;;;;26.84;42.02;99024.00;4995578;28;20030;-70
2021/07/20 10:56:16;;;;;;;14.60;8.60;;;;;;;27.75;39.38;99014.72;4995542;28;20428;-70
2021/07/20 10:58:49;;;;;;;15.35;9.13;;;;;;;27.56;40.50;99018.09;4995505;28;20022;-71
2021/07/20 11:01:19;;;;;;;12.32;9.60;;;;;;;28.60;37.99;99016.28;4995302;28;20030;-71
2021/07/20 11:04:01;;;;;;;23.55;10.10;;;;;;;28.43;37.40;99023.94;4995413;28;20499;-70
2021/07/20 11:06:27;;;;;;;18.15;10.32;;;;;;;27.01;39.75;99019.13;4995169;28;20038;-70
2021/07/20 11:08:57;;;;;;;11.45;9.13;;;;;;;28.53;37.24;99020.44;4995236;28;20030;-70
2021/07/20 11:11:44;;;;;;;16.60;10.15;;;;;;;27.27;40.21;99020.53;4995097;28;20030;-70
2021/07/20 11:14:10;;;;;;;13.93;9.95;;;;;;;28.40;36.53;99021.53;4995225;28;20026;-70
2021/07/20 11:16:38;;;;;;;14.15;9.60;;;;;;;28.68;36.43;99013.78;4994977;28;20054;-70
2021/07/20 11:19:04;;;;;;;16.45;10.63;;;;;;;28.71;39.24;99018.81;4994976;28;20038;-70
2021/07/20 11:21:31;;;;;;;15.18;10.45;;;;;;;30.66;32.87;99014.97;4994954;28;20507;-69
2021/07/20 11:23:57;;;;;;;15.68;10.00;;;;;;;30.54;33.16;99005.44;4995217;28;20050;-70
2021/07/20 11:26:24;;;;;;;18.30;10.63;;;;;;;29.58;33.24;99010.91;4994769;28;20368;-70
2021/07/20 11:28:50;;;;;;;16.20;11.20;;;;;;;31.21;31.66;99009.53;4993762;28;20096;-69
2021/07/20 11:31:42;;;;;;;14.55;10.23;;;;;;;33.17;29.05;98998.09;4994669;28;20083;-71
2021/07/20 11:34:13;;;;;;;15.75;10.75;;;;;;;32.93;29.41;99001.56;4995048;28;20036;-71
2021/07/20 11:36:41;;;;;;;16.13;10.32;;;;;;;32.19;32.34;99000.41;4994556;28;20506;-70
2021/07/20 11:39:14;;;;;;;20.95;10.85;;;;;;;31.35;31.77;99006.34;4994813;28;20033;-71
2021/07/20 11:42:04;;;;;;;19.48;11.77;;;;;;;32.13;29.89;99005.56;4993286;28;20514;-69
2021/07/20 11:44:45;;;;;;;16.00;10.75;;;;;;;31.70;30.31;99009.97;4956667;28;20085;-70
2021/07/20 11:47:29;;;;;;;16.02;10.30;;;;;;;28.97;34.95;98997.00;4994509;28;20399;-70
2021/07/20 11:50:34;;;;;;;13.82;10.52;;;;;;;31.84;29.42;98996.03;4994384;28;20029;-70
2021/07/20 11:53:20;;;;;;;16.42;11.07;;;;;;;30.03;32.22;98996.06;4983563;28;20042;-69
2021/07/20 11:55:59;;;;;;;14.25;10.68;;;;;;;27.99;36.08;98992.28;4994422;28;20034;-70
2021/07/20 11:58:43;;;;;;;;;;;;;;;27.31;39.46;99005.97;4994596;28;20037;-70
2021/07/20 12:01:27;;;;;;;19.73;11.10;;;;;;;26.04;39.72;99002.03;4994276;28;19910;-70
2021/07/20 12:04:04;;;;;;;15.57;11.55;;;;;;;25.16;40.83;98991.91;4994312;28;20030;-71
2021/07/20 12:06:51;;;;;;;22.60;11.55;;;;;;;26.24;40.56;98987.19;4994106;28;20033;-70
2021/07/20 12:09:22;;;;;;;22.38;11.38;;;;;;;27.16;38.36;98991.28;4994327;28;20053;-70
2021/07/20 12:11:51;;;;;;;16.17;11.98;;;;;;;28.01;36.49;98985.00;4994002;28;20432;-71
2021/07/20 12:14:16;;;;;;;17.03;10.80;;;;;;;27.12;38.18;98990.69;4993991;28;20030;-70
2021/07/20 12:16:44;;;;;;;15.13;10.73;;;;;;;27.74;37.93;98975.75;4993737;28;20508;-71
2021/07/20 12:19:10;;;;;;;19.20;11.48;;;;;;;26.25;41.02;98989.72;4993598;28;20476;-71
2021/07/20 12:21:39;;;;;;;18.55;11.68;;;;;;;26.32;40.00;98990.94;4993934;28;20037;-71
2021/07/20 12:24:08;;;;;;;16.40;11.27;;;;;;;24.84;41.43;98995.09;4993611;28;20415;-70
2021/07/20 12:26:34;;;;;;;19.23;12.18;;;;;;;26.32;40.11;98985.63;4993616;28;20034;-70
2021/07/20 12:29:01;;;;;;;18.83;11.25;;;;;;;24.65;41.86;98994.75;4993707;28;20423;-70
2021/07/20 12:31:37;;;;;;;16.38;10.55;;;;;;;24.78;41.23;98990.25;4993400;28;20034;-70
2021/07/20 12:34:03;;;;;;;18.75;10.93;;;;;;;24.70;39.64;98987.31;4993517;28;20066;-70
2021/07/20 12:36:30;;;;;;;13.20;10.05;;;;;;;24.27;41.34;98990.38;4993441;28;20022;-70
2021/07/20 12:39:19;;;;;;;20.50;10.85;;;;;;;25.73;38.97;98980.50;4993315;28;20029;-70
2021/07/20 12:41:53;;;;;;;22.13;11.38;;;;;;;25.18;40.11;98984.69;4992184;28;20031;-70
2021/07/20 12:44:21;;;;;;;16.02;10.63;;;;;;;25.41;39.83;98982.13;4992500;28;20526;-70
2021/07/20 12:46:47;;;;;;;15.02;10.25;;;;;;;25.41;40.06;98996.22;4993167;28;20030;-70
2021/07/20 12:49:13;;;;;;;17.92;10.55;;;;;;;25.04;39.22;98990.13;4993118;28;20368;-69
2021/07/20 12:51:50;;;;;;;16.10;10.68;;;;;;;23.80;44.06;98989.25;4993285;28;20431;-70
2021/07/20 12:54:32;;;;;;;15.20;8.95;;;;;;;25.78;41.72;98985.50;4993239;28;20026;-70
2021/07/20 12:56:57;;;;;;;14.00;9.20;;;;;;;26.50;39.48;98987.81;4993146;28;20023;-70
2021/07/20 12:59:23;;;;;;;15.48;9.23;;;;;;;26.56;37.03;98987.31;4991669;28;20028;-70
2021/07/20 13:01:48;;;;;;;13.25;8.70;;;;;;;26.48;36.51;98981.78;4993106;28;20061;-70
2021/07/20 13:04:14;;;;;;;15.75;8.98;;;;;;;26.63;36.51;98980.53;4993015;28;20018;-70
2021/07/20 13:06:40;;;;;;;12.43;8.70;;;;;;;25.80;36.51;98973.78;4992832;28;20026;-71
2021/07/20 13:09:07;;;;;;;15.45;9.70;;;;;;;25.48;36.62;98980.66;4992925;28;20085;-70
2021/07/20 13:11:36;;;;;;;12.02;8.88;;;;;;;25.78;38.96;98981.03;4991441;28;20019;-70
2021/07/20 13:14:02;;;;;;;12.30;8.90;;;;;;;23.46;41.09;98981.88;4992823;28;20057;-70
2021/07/20 13:16:31;;;;;;;13.75;9.02;;;;;;;24.40;41.41;98976.28;4992771;28;20432;-70
2021/07/20 13:18:56;;;;;;;14.57;9.05;;;;;;;25.12;40.65;98974.53;4992722;28;20109;-70
2021/07/20 13:21:22;;;;;;;12.90;8.70;;;;;;;25.74;38.86;98974.22;4992519;28;20560;-70
2021/07/20 13:23:48;;;;;;;15.38;8.98;;;;;;;25.11;39.43;98976.34;4992646;28;20018;-70
2021/07/20 13:26:22;;;;;;;15.48;8.25;;;;;;;25.80;37.97;98980.91;4992379;28;20108;-70
2021/07/20 13:28:52;;;;;;;19.52;14.38;;;;;;;25.93;38.92;98975.50;4992523;28;20117;-69
2021/07/20 13:31:18;;;;;;;16.73;8.88;;;;;;;24.80;40.47;98980.41;4992385;28;20022;-69
2021/07/20 13:33:43;;;;;;;14.10;8.30;;;;;;;25.52;39.24;98984.78;4992593;28;20030;-69
2021/07/20 13:36:09;;;;;;;14.52;8.27;;;;;;;25.07;39.61;98982.00;4992193;28;20527;-70
2021/07/20 13:38:35;;;;;;;13.00;8.00;;;;;;;25.42;37.67;98984.63;4991218;28;20019;-69
2021/07/20 13:41:03;;;;;;;15.13;9.00;;;;;;;24.88;39.38;98991.25;4992479;28;20026;-71
2021/07/20 13:43:30;;;;;;;19.20;10.23;;;;;;;25.98;37.21;98975.97;4991018;28;20030;-70
2021/07/20 13:46:02;;;;;;;16.83;8.45;;;;;;;25.38;35.38;98983.19;4979342;28;20045;-71
2021/07/20 13:48:29;;;;;;;10.57;7.63;;;;;;;25.62;36.54;98985.78;4975773;28;20779;-69
2021/07/20 13:50:58;;;;;;;10.98;7.53;;;;;;;25.83;37.17;98986.81;4980778;28;20068;-70
2021/07/20 13:53:30;;;;;;;32.63;19.23;;;;;;;26.08;36.03;98987.56;4983813;28;20057;-70
2021/07/20 13:56:17;;;;;;;17.52;9.02;;;;;;;26.23;35.76;98986.34;4978853;28;20023;-70
2021/07/20 13:58:46;;;;;;;12.55;7.80;;;;;;;26.06;35.00;98978.84;4985820;28;20026;-70
2021/07/20 14:01:12;;;;;;;12.57;8.50;;;;;;;26.12;36.89;98981.91;4982202;28;20034;-71
2021/07/20 14:03:39;;;;;;;11.52;8.00;;;;;;;26.34;36.06;98974.88;4978283;28;20026;-69
2021/07/20 14:06:05;;;;;;;13.18;8.25;;;;;;;25.50;39.08;98979.59;4982738;28;20105;-70
2021/07/20 14:08:32;;;;;;;14.55;8.23;;;;;;;25.07;40.26;98979.34;4986458;28;20038;-70
2021/07/20 14:10:58;;;;;;;16.40;8.13;;;;;;;24.99;39.17;98968.41;4987521;28;21474;-70
2021/07/20 14:13:26;;;;;;;19.20;12.10;;;;;;;25.13;39.29;98968.28;4986015;28;20121;-70
2021/07/20 14:15:53;;;;;;;11.57;8.07;;;;;;;25.55;38.42;98963.34;4982015;28;20503;-70
2021/07/20 14:18:19;;;;;;;10.60;7.60;;;;;;;25.85;37.75;98968.09;4982980;28;20030;-71
2021/07/20 14:20:45;;;;;;;11.88;7.13;;;;;;;26.28;35.51;98968.22;4985074;28;20040;-71
2021/07/20 14:23:11;;;;;;;10.50;7.32;;;;;;;26.50;34.44;98961.25;4984449;28;20388;-70
2021/07/20 14:25:49;;;;;;;11.88;7.53;;;;;;;26.33;35.86;98959.91;4982133;28;20050;-71
2021/07/20 14:28:17;;;;;;;14.98;7.88;;;;;;;26.35;36.95;98953.50;4966894;28;20054;-71
2021/07/20 14:30:51;;;;;;;13.18;8.30;;;;;;;25.68;37.29;98961.44;4966665;28;20396;-71
2021/07/20 14:33:21;;;;;;;9.45;7.15;;;;;;;26.38;36.98;98963.88;4963723;28;20061;-70
2021/07/20 14:35:47;;;;;;;12.50;7.68;;;;;;;26.45;37.79;98968.72;4965495;28;20041;-70
2021/07/20 14:38:14;;;;;;;14.57;7.13;;;;;;;26.32;36.07;98951.09;4966528;28;20035;-70
2021/07/20 14:40:41;;;;;;;13.20;8.10;;;;;;;26.31;36.02;98954.72;4964205;28;20030;-71
2021/07/20 14:43:10;;;;;;;13.63;7.93;;;;;;;26.51;37.61;98952.31;4962733;28;20030;-71
2021/07/20 14:45:37;;;;;;;16.58;7.70;;;;;;;25.48;36.87;98956.78;4966609;28;21086;-71
2021/07/20 14:48:10;;;;;;;11.68;7.32;;;;;;;26.34;34.55;98956.25;4962395;28;21388;-71
2021/07/20 14:50:38;;;;;;;13.30;7.88;;;;;;;26.54;33.53;98952.03;4967359;28;20054;-69
2021/07/20 14:53:07;;;;;;;12.47;7.43;;;;;;;26.07;36.18;98944.22;4959803;28;20031;-70
2021/07/20 14:55:37;;;;;;;12.37;7.13;;;;;;;25.25;37.63;98951.44;4967035;28;20715;-72
2021/07/20 14:58:14;;;;;;;10.10;7.25;;;;;;;24.96;37.85;98955.41;4962242;28;20034;-71
2021/07/20 15:00:52;;;;;;;11.00;7.40;;;;;;;25.54;36.25;98941.25;4963945;28;20039;-72
2021/07/20 15:03:43;;;;;;;12.75;7.03;;;;;;;25.14;38.19;98938.13;4961402;28;20033;-71
2021/07/20 15:06:14;;;;;;;12.13;6.85;;;;;;;25.09;37.41;98945.59;4964634;28;20030;-71
2021/07/20 15:08:56;;;;;;;11.40;7.57;;;;;;;24.97;36.63;98938.53;4966873;28;20030;-72
2021/07/20 15:11:41;;;;;;;12.70;7.25;;;;;;;24.87;37.99;98951.63;4964197;28;20442;-71
2021/07/20 15:14:09;;;;;;;14.55;7.55;;;;;;;24.99;35.09;98940.09;4964497;28;20400;-71
2021/07/20 15:16:40;;;;;;;15.63;7.05;;;;;;;25.49;36.07;98945.25;4962544;28;20031;-71
2021/07/20 15:19:11;;;;;;;9.25;6.90;;;;;;;25.94;36.92;98937.34;4967113;28;20042;-69
2021/07/20 15:21:51;;;;;;;9.68;6.75;;;;;;;26.30;34.57;98939.75;4964351;28;21305;-71
2021/07/20 15:24:33;;;;;;;11.93;7.45;;;;;;;26.38;35.01;98934.63;4965675;28;20062;-71
2021/07/20 15:27:01;;;;;;;11.02;7.25;;;;;;;26.30;37.05;98950.38;4961793;28;20459;-71
2021/07/20 15:29:27;;;;;;;10.50;6.93;;;;;;;25.61;35.53;98938.97;4964906;28;20141;-72
2021/07/20 15:31:54;;;;;;;10.85;8.10;;;;;;;24.88;37.48;98943.53;4963460;28;20039;-70
2021/07/20 15:34:22;;;;;;;15.60;7.88;;;;;;;25.84;35.83;98932.75;4964429;28;20493;-69
2021/07/20 15:37:03;;;;;;;12.07;8.05;;;;;;;25.26;35.97;98942.53;4961201;28;20039;-69
2021/07/20 15:39:28;;;;;;;12.45;8.43;;;;;;;25.05;36.53;98944.13;4962250;28;20023;-69
2021/07/20 15:41:54;;;;;;;12.70;8.52;;;;;;;25.80;35.14;98939.25;4961126;28;20038;-70
2021/07/20 15:44:22;;;;;;;16.05;8.35;;;;;;;25.95;34.69;98934.56;4960319;28;20098;-69
2021/07/20 15:46:47;;;;;;;10.60;7.75;;;;;;;26.26;34.02;98946.28;4964693;28;20080;-70
2021/07/20 15:49:12;;;;;;;9.93;6.88;;;;;;;25.97;35.75;98940.63;4958600;28;20419;-70
2021/07/20 15:51:38;;;;;;;10.77;8.00;;;;;;;25.20;36.27;98943.00;4964653;28;20473;-70
2021/07/20 15:54:04;;;;;;;11.20;8.02;;;;;;;25.42;37.06;98951.97;4962362;28;20043;-69
2021/07/20 15:56:31;;;;;;;14.32;8.05;;;;;;;25.78;37.31;98954.47;4958557;28;20430;-69